sensor_id;sensor_type;location;lat;lon;timestamp;P1;durP1;ratioP1;P2;durP2;ratioP2
12145;SDS011;6136;47.032;15.398;2022-07-29T00:00:18;5.13;;;4.72;;
12145;SDS011;6136;47.032;15.398;2022-07-29T00:02:47;6.47;;;4.85;;
12145;SDS011;6136;47.032;15.398;2022-07-29T00:05:15;7.22;;;4.82;;
12145;SDS011;6136;47.032;15.398;2022-07-29T00:07:43;4.93;;;4.43;;
12145;SDS011;6136;47.032;15.398;2022-07-29T00:10:12;5.43;;;4.93;;
12145;SDS011;6136;47.032;15.398;2022-07-29T00:12:40;5.75;;;4.68;;
12145;SDS011;6136;47.032;15.398;2022-07-29T00:15:08;5.13;;;4.63;;
12145;SDS011;6136;47.032;15.398;2022-07-29T00:17:36;5.07;;;4.68;;
12145;SDS011;6136;47.032;15.398;2022-07-29T00:20:07;5.70;;;4.82;;
12145;SDS011;6136;47.032;15.398;2022-07-29T00:22:36;5.90;;;5.10;;
12145;SDS011;6136;47.032;15.398;2022-07-29T00:25:05;5.60;;;5.03;;
12145;SDS011;6136;47.032;15.398;2022-07-29T00:27:34;6.30;;;5.00;;
12145;SDS011;6136;47.032;15.398;2022-07-29T00:30:02;5.45;;;4.85;;
12145;SDS011;6136;47.032;15.398;2022-07-29T00:32:31;5.18;;;4.68;;
12145;SDS011;6136;47.032;15.398;2022-07-29T00:35:00;4.68;;;4.28;;
12145;SDS011;6136;47.032;15.398;2022-07-29T00:37:47;4.60;;;4.20;;
12145;SDS011;6136;47.032;15.398;2022-07-29T00:40:15;4.80;;;4.40;;
12145;SDS011;6136;47.032;15.398;2022-07-29T00:42:43;5.40;;;4.75;;
12145;SDS011;6136;47.032;15.398;2022-07-29T00:45:12;6.15;;;4.82;;
12145;SDS011;6136;47.032;15.398;2022-07-29T00:47:41;5.07;;;4.57;;
12145;SDS011;6136;47.032;15.398;2022-07-29T00:50:10;5.20;;;4.45;;
12145;SDS011;6136;47.032;15.398;2022-07-29T00:52:40;5.63;;;5.03;;
12145;SDS011;6136;47.032;15.398;2022-07-29T00:55:11;4.93;;;4.40;;
12145;SDS011;6136;47.032;15.398;2022-07-29T00:57:41;5.50;;;4.80;;
12145;SDS011;6136;47.032;15.398;2022-07-29T01:00:11;6.30;;;5.00;;
12145;SDS011;6136;47.032;15.398;2022-07-29T01:02:41;5.28;;;4.75;;
12145;SDS011;6136;47.032;15.398;2022-07-29T01:05:09;5.72;;;5.22;;
12145;SDS011;6136;47.032;15.398;2022-07-29T01:07:39;6.65;;;5.13;;
12145;SDS011;6136;47.032;15.398;2022-07-29T01:10:11;5.00;;;4.50;;
12145;SDS011;6136;47.032;15.398;2022-07-29T01:12:40;5.32;;;4.85;;
12145;SDS011;6136;47.032;15.398;2022-07-29T01:15:11;6.75;;;5.22;;
12145;SDS011;6136;47.032;15.398;2022-07-29T01:17:42;5.70;;;5.20;;
12145;SDS011;6136;47.032;15.398;2022-07-29T01:20:20;6.07;;;5.28;;
12145;SDS011;6136;47.032;15.398;2022-07-29T01:23:01;9.30;;;5.15;;
12145;SDS011;6136;47.032;15.398;2022-07-29T01:25:48;5.35;;;4.85;;
12145;SDS011;6136;47.032;15.398;2022-07-29T01:28:49;5.22;;;4.72;;
12145;SDS011;6136;47.032;15.398;2022-07-29T01:31:34;6.25;;;5.13;;
12145;SDS011;6136;47.032;15.398;2022-07-29T01:34:27;5.63;;;4.60;;
12145;SDS011;6136;47.032;15.398;2022-07-29T01:37:01;7.70;;;5.22;;
12145;SDS011;6136;47.032;15.398;2022-07-29T01:39:36;5.63;;;5.03;;
12145;SDS011;6136;47.032;15.398;2022-07-29T01:42:08;5.05;;;4.55;;
12145;SDS011;6136;47.032;15.398;2022-07-29T01:44:46;6.05;;;5.45;;
12145;SDS011;6136;47.032;15.398;2022-07-29T01:47:23;5.07;;;4.68;;
12145;SDS011;6136;47.032;15.398;2022-07-29T01:49:54;5.50;;;4.65;;
12145;SDS011;6136;47.032;15.398;2022-07-29T01:52:27;5.45;;;4.95;;
12145;SDS011;6136;47.032;15.398;2022-07-29T01:55:03;5.82;;;5.30;;
12145;SDS011;6136;47.032;15.398;2022-07-29T01:57:35;7.13;;;5.72;;
12145;SDS011;6136;47.032;15.398;2022-07-29T02:00:08;5.40;;;4.88;;
12145;SDS011;6136;47.032;15.398;2022-07-29T02:02:39;5.70;;;4.95;;
12145;SDS011;6136;47.032;15.398;2022-07-29T02:05:10;5.88;;;5.20;;
12145;SDS011;6136;47.032;15.398;2022-07-29T02:07:41;6.45;;;5.85;;
12145;SDS011;6136;47.032;15.398;2022-07-29T02:10:12;5.90;;;5.38;;
12145;SDS011;6136;47.032;15.398;2022-07-29T02:12:41;6.70;;;4.90;;
12145;SDS011;6136;47.032;15.398;2022-07-29T02:15:16;6.10;;;5.50;;
12145;SDS011;6136;47.032;15.398;2022-07-29T02:17:48;7.65;;;6.13;;
12145;SDS011;6136;47.032;15.398;2022-07-29T02:20:19;6.07;;;5.45;;
12145;SDS011;6136;47.032;15.398;2022-07-29T02:22:49;7.32;;;5.45;;
12145;SDS011;6136;47.032;15.398;2022-07-29T02:25:20;7.28;;;5.90;;
12145;SDS011;6136;47.032;15.398;2022-07-29T02:27:50;5.78;;;5.28;;
12145;SDS011;6136;47.032;15.398;2022-07-29T02:30:21;6.63;;;5.93;;
12145;SDS011;6136;47.032;15.398;2022-07-29T02:32:50;6.78;;;5.32;;
12145;SDS011;6136;47.032;15.398;2022-07-29T02:35:21;5.80;;;5.13;;
12145;SDS011;6136;47.032;15.398;2022-07-29T02:37:50;5.63;;;5.13;;
12145;SDS011;6136;47.032;15.398;2022-07-29T02:40:33;5.45;;;4.95;;
12145;SDS011;6136;47.032;15.398;2022-07-29T02:43:03;5.53;;;5.03;;
12145;SDS011;6136;47.032;15.398;2022-07-29T02:45:35;5.82;;;5.22;;
12145;SDS011;6136;47.032;15.398;2022-07-29T02:48:05;8.10;;;5.65;;
12145;SDS011;6136;47.032;15.398;2022-07-29T02:50:38;5.85;;;5.30;;
12145;SDS011;6136;47.032;15.398;2022-07-29T02:53:12;7.15;;;5.93;;
12145;SDS011;6136;47.032;15.398;2022-07-29T02:55:43;7.93;;;6.35;;
12145;SDS011;6136;47.032;15.398;2022-07-29T02:58:19;6.32;;;5.72;;
12145;SDS011;6136;47.032;15.398;2022-07-29T03:00:56;6.63;;;5.93;;
12145;SDS011;6136;47.032;15.398;2022-07-29T03:03:28;6.40;;;5.80;;
12145;SDS011;6136;47.032;15.398;2022-07-29T03:06:00;6.05;;;5.40;;
12145;SDS011;6136;47.032;15.398;2022-07-29T03:08:30;9.50;;;5.90;;
12145;SDS011;6136;47.032;15.398;2022-07-29T03:10:59;7.97;;;6.27;;
12145;SDS011;6136;47.032;15.398;2022-07-29T03:13:29;7.80;;;5.85;;
12145;SDS011;6136;47.032;15.398;2022-07-29T03:15:59;7.38;;;5.20;;
12145;SDS011;6136;47.032;15.398;2022-07-29T03:18:29;6.53;;;5.82;;
12145;SDS011;6136;47.032;15.398;2022-07-29T03:20:58;6.97;;;6.20;;
12145;SDS011;6136;47.032;15.398;2022-07-29T03:23:27;6.70;;;6.10;;
12145;SDS011;6136;47.032;15.398;2022-07-29T03:26:00;6.50;;;5.77;;
12145;SDS011;6136;47.032;15.398;2022-07-29T03:28:28;6.00;;;5.40;;
12145;SDS011;6136;47.032;15.398;2022-07-29T03:30:57;5.70;;;5.18;;
12145;SDS011;6136;47.032;15.398;2022-07-29T03:33:26;6.53;;;5.77;;
12145;SDS011;6136;47.032;15.398;2022-07-29T03:35:56;5.75;;;5.25;;
12145;SDS011;6136;47.032;15.398;2022-07-29T03:38:25;5.70;;;5.20;;
12145;SDS011;6136;47.032;15.398;2022-07-29T03:40:57;8.00;;;6.40;;
12145;SDS011;6136;47.032;15.398;2022-07-29T03:43:29;6.90;;;6.20;;
12145;SDS011;6136;47.032;15.398;2022-07-29T03:45:59;7.97;;;6.70;;
12145;SDS011;6136;47.032;15.398;2022-07-29T03:48:31;6.23;;;5.63;;
12145;SDS011;6136;47.032;15.398;2022-07-29T03:51:02;7.70;;;6.37;;
12145;SDS011;6136;47.032;15.398;2022-07-29T03:53:30;6.67;;;6.07;;
12145;SDS011;6136;47.032;15.398;2022-07-29T03:56:01;8.40;;;5.70;;
12145;SDS011;6136;47.032;15.398;2022-07-29T03:58:30;5.90;;;5.30;;
12145;SDS011;6136;47.032;15.398;2022-07-29T04:00:59;6.47;;;5.87;;
12145;SDS011;6136;47.032;15.398;2022-07-29T04:03:27;5.73;;;5.10;;
12145;SDS011;6136;47.032;15.398;2022-07-29T04:06:00;5.80;;;5.23;;
12145;SDS011;6136;47.032;15.398;2022-07-29T04:08:29;6.05;;;5.35;;
12145;SDS011;6136;47.032;15.398;2022-07-29T04:10:58;6.37;;;5.20;;
12145;SDS011;6136;47.032;15.398;2022-07-29T04:13:26;6.30;;;5.70;;
12145;SDS011;6136;47.032;15.398;2022-07-29T04:15:54;8.10;;;5.87;;
12145;SDS011;6136;47.032;15.398;2022-07-29T04:18:22;6.67;;;6.07;;
12145;SDS011;6136;47.032;15.398;2022-07-29T04:20:50;6.20;;;5.60;;
12145;SDS011;6136;47.032;15.398;2022-07-29T04:23:20;6.43;;;5.83;;
12145;SDS011;6136;47.032;15.398;2022-07-29T04:25:48;6.50;;;5.83;;
12145;SDS011;6136;47.032;15.398;2022-07-29T04:28:16;8.27;;;5.90;;
12145;SDS011;6136;47.032;15.398;2022-07-29T04:30:44;6.93;;;5.80;;
12145;SDS011;6136;47.032;15.398;2022-07-29T04:33:13;6.27;;;5.67;;
12145;SDS011;6136;47.032;15.398;2022-07-29T04:35:41;6.03;;;5.47;;
12145;SDS011;6136;47.032;15.398;2022-07-29T04:38:14;7.20;;;6.13;;
12145;SDS011;6136;47.032;15.398;2022-07-29T04:40:44;6.10;;;5.50;;
12145;SDS011;6136;47.032;15.398;2022-07-29T04:43:12;7.30;;;6.53;;
12145;SDS011;6136;47.032;15.398;2022-07-29T04:45:41;8.57;;;6.47;;
12145;SDS011;6136;47.032;15.398;2022-07-29T04:48:09;6.07;;;5.47;;
12145;SDS011;6136;47.032;15.398;2022-07-29T04:50:37;7.07;;;6.37;;
12145;SDS011;6136;47.032;15.398;2022-07-29T04:53:06;8.70;;;6.37;;
12145;SDS011;6136;47.032;15.398;2022-07-29T04:55:34;7.88;;;6.43;;
12145;SDS011;6136;47.032;15.398;2022-07-29T04:58:05;10.95;;;7.28;;
12145;SDS011;6136;47.032;15.398;2022-07-29T05:00:34;7.40;;;6.25;;
12145;SDS011;6136;47.032;15.398;2022-07-29T05:03:02;7.80;;;6.68;;
12145;SDS011;6136;47.032;15.398;2022-07-29T05:05:30;8.02;;;6.63;;
12145;SDS011;6136;47.032;15.398;2022-07-29T05:07:58;7.97;;;7.18;;
12145;SDS011;6136;47.032;15.398;2022-07-29T05:10:27;9.55;;;7.13;;
12145;SDS011;6136;47.032;15.398;2022-07-29T05:12:55;7.78;;;6.88;;
12145;SDS011;6136;47.032;15.398;2022-07-29T05:15:25;7.25;;;6.03;;
12145;SDS011;6136;47.032;15.398;2022-07-29T05:17:53;6.63;;;5.93;;
12145;SDS011;6136;47.032;15.398;2022-07-29T05:20:21;14.50;;;7.28;;
12145;SDS011;6136;47.032;15.398;2022-07-29T05:22:54;9.45;;;6.95;;
12145;SDS011;6136;47.032;15.398;2022-07-29T05:25:22;6.75;;;6.10;;
12145;SDS011;6136;47.032;15.398;2022-07-29T05:28:09;7.40;;;6.30;;
12145;SDS011;6136;47.032;15.398;2022-07-29T05:30:39;10.05;;;6.85;;
12145;SDS011;6136;47.032;15.398;2022-07-29T05:33:07;8.57;;;6.45;;
12145;SDS011;6136;47.032;15.398;2022-07-29T05:35:55;7.00;;;6.30;;
12145;SDS011;6136;47.032;15.398;2022-07-29T05:38:26;7.28;;;6.15;;
12145;SDS011;6136;47.032;15.398;2022-07-29T05:40:56;7.35;;;6.65;;
12145;SDS011;6136;47.032;15.398;2022-07-29T05:43:25;7.70;;;6.90;;
12145;SDS011;6136;47.032;15.398;2022-07-29T05:45:55;7.20;;;6.43;;
12145;SDS011;6136;47.032;15.398;2022-07-29T05:48:23;8.63;;;6.50;;
12145;SDS011;6136;47.032;15.398;2022-07-29T05:50:51;7.53;;;6.70;;
12145;SDS011;6136;47.032;15.398;2022-07-29T05:53:20;7.80;;;6.90;;
12145;SDS011;6136;47.032;15.398;2022-07-29T05:55:48;10.30;;;7.50;;
12145;SDS011;6136;47.032;15.398;2022-07-29T05:58:17;13.18;;;7.68;;
12145;SDS011;6136;47.032;15.398;2022-07-29T06:00:45;10.57;;;6.82;;
12145;SDS011;6136;47.032;15.398;2022-07-29T06:03:15;13.50;;;7.35;;
12145;SDS011;6136;47.032;15.398;2022-07-29T06:05:43;9.18;;;6.88;;
12145;SDS011;6136;47.032;15.398;2022-07-29T06:08:11;11.20;;;6.38;;
12145;SDS011;6136;47.032;15.398;2022-07-29T06:10:39;13.15;;;7.18;;
12145;SDS011;6136;47.032;15.398;2022-07-29T06:13:07;11.38;;;6.55;;
12145;SDS011;6136;47.032;15.398;2022-07-29T06:15:35;10.07;;;7.30;;
12145;SDS011;6136;47.032;15.398;2022-07-29T06:18:03;8.23;;;6.72;;
12145;SDS011;6136;47.032;15.398;2022-07-29T06:20:36;11.57;;;6.75;;
12145;SDS011;6136;47.032;15.398;2022-07-29T06:23:04;12.25;;;6.18;;
12145;SDS011;6136;47.032;15.398;2022-07-29T06:25:33;9.32;;;6.43;;
12145;SDS011;6136;47.032;15.398;2022-07-29T06:28:03;6.40;;;5.78;;
12145;SDS011;6136;47.032;15.398;2022-07-29T06:30:31;6.97;;;6.22;;
12145;SDS011;6136;47.032;15.398;2022-07-29T06:33:00;7.32;;;5.70;;
12145;SDS011;6136;47.032;15.398;2022-07-29T06:35:28;7.40;;;5.57;;
12145;SDS011;6136;47.032;15.398;2022-07-29T06:38:08;6.30;;;5.25;;
12145;SDS011;6136;47.032;15.398;2022-07-29T06:40:58;6.40;;;5.80;;
12145;SDS011;6136;47.032;15.398;2022-07-29T06:43:31;8.65;;;6.22;;
12145;SDS011;6136;47.032;15.398;2022-07-29T06:46:16;6.30;;;5.70;;
12145;SDS011;6136;47.032;15.398;2022-07-29T06:48:46;6.95;;;5.45;;
12145;SDS011;6136;47.032;15.398;2022-07-29T06:51:15;6.20;;;5.55;;
12145;SDS011;6136;47.032;15.398;2022-07-29T06:53:48;10.95;;;5.60;;
12145;SDS011;6136;47.032;15.398;2022-07-29T06:56:25;5.97;;;5.38;;
12145;SDS011;6136;47.032;15.398;2022-07-29T06:58:54;5.95;;;5.30;;
12145;SDS011;6136;47.032;15.398;2022-07-29T07:01:22;6.75;;;6.05;;
12145;SDS011;6136;47.032;15.398;2022-07-29T07:03:50;5.40;;;4.90;;
12145;SDS011;6136;47.032;15.398;2022-07-29T07:06:18;6.53;;;5.93;;
12145;SDS011;6136;47.032;15.398;2022-07-29T07:08:46;7.90;;;5.80;;
12145;SDS011;6136;47.032;15.398;2022-07-29T07:11:16;7.10;;;5.75;;
12145;SDS011;6136;47.032;15.398;2022-07-29T07:13:44;5.68;;;5.15;;
12145;SDS011;6136;47.032;15.398;2022-07-29T07:16:12;5.95;;;5.43;;
12145;SDS011;6136;47.032;15.398;2022-07-29T07:18:40;5.47;;;4.97;;
12145;SDS011;6136;47.032;15.398;2022-07-29T07:21:08;7.05;;;5.28;;
12145;SDS011;6136;47.032;15.398;2022-07-29T07:23:37;6.15;;;5.50;;
12145;SDS011;6136;47.032;15.398;2022-07-29T07:26:05;7.22;;;5.13;;
12145;SDS011;6136;47.032;15.398;2022-07-29T07:28:34;6.47;;;5.63;;
12145;SDS011;6136;47.032;15.398;2022-07-29T07:31:02;7.45;;;4.95;;
12145;SDS011;6136;47.032;15.398;2022-07-29T07:33:31;6.45;;;5.85;;
12145;SDS011;6136;47.032;15.398;2022-07-29T07:35:59;6.22;;;5.30;;
12145;SDS011;6136;47.032;15.398;2022-07-29T07:38:27;5.32;;;4.68;;
12145;SDS011;6136;47.032;15.398;2022-07-29T07:40:55;7.47;;;5.50;;
12145;SDS011;6136;47.032;15.398;2022-07-29T07:43:28;5.68;;;4.97;;
12145;SDS011;6136;47.032;15.398;2022-07-29T07:46:15;6.15;;;5.43;;
12145;SDS011;6136;47.032;15.398;2022-07-29T07:48:44;6.40;;;5.80;;
12145;SDS011;6136;47.032;15.398;2022-07-29T07:51:12;5.70;;;4.90;;
12145;SDS011;6136;47.032;15.398;2022-07-29T07:53:40;10.85;;;5.20;;
12145;SDS011;6136;47.032;15.398;2022-07-29T07:56:11;5.63;;;4.85;;
12145;SDS011;6136;47.032;15.398;2022-07-29T07:58:39;5.32;;;4.68;;
12145;SDS011;6136;47.032;15.398;2022-07-29T08:01:07;5.15;;;4.53;;
12145;SDS011;6136;47.032;15.398;2022-07-29T08:03:37;5.35;;;4.85;;
12145;SDS011;6136;47.032;15.398;2022-07-29T08:06:05;5.32;;;4.72;;
12145;SDS011;6136;47.032;15.398;2022-07-29T08:08:34;8.43;;;4.90;;
12145;SDS011;6136;47.032;15.398;2022-07-29T08:11:02;7.10;;;4.53;;
12145;SDS011;6136;47.032;15.398;2022-07-29T08:13:35;6.07;;;4.28;;
12145;SDS011;6136;47.032;15.398;2022-07-29T08:16:05;4.90;;;4.45;;
12145;SDS011;6136;47.032;15.398;2022-07-29T08:18:44;5.20;;;4.70;;
12145;SDS011;6136;47.032;15.398;2022-07-29T08:21:13;5.63;;;5.07;;
12145;SDS011;6136;47.032;15.398;2022-07-29T08:23:42;4.80;;;4.40;;
12145;SDS011;6136;47.032;15.398;2022-07-29T08:26:25;6.43;;;4.32;;
12145;SDS011;6136;47.032;15.398;2022-07-29T08:28:53;6.35;;;4.47;;
12145;SDS011;6136;47.032;15.398;2022-07-29T08:31:21;5.22;;;4.72;;
12145;SDS011;6136;47.032;15.398;2022-07-29T08:33:51;6.88;;;4.75;;
12145;SDS011;6136;47.032;15.398;2022-07-29T08:36:19;5.72;;;4.47;;
12145;SDS011;6136;47.032;15.398;2022-07-29T08:38:48;7.40;;;5.28;;
12145;SDS011;6136;47.032;15.398;2022-07-29T08:41:17;5.10;;;4.68;;
12145;SDS011;6136;47.032;15.398;2022-07-29T08:43:46;5.35;;;4.38;;
12145;SDS011;6136;47.032;15.398;2022-07-29T08:46:14;5.10;;;4.18;;
12145;SDS011;6136;47.032;15.398;2022-07-29T08:48:43;9.15;;;4.22;;
12145;SDS011;6136;47.032;15.398;2022-07-29T08:51:14;5.65;;;4.72;;
12145;SDS011;6136;47.032;15.398;2022-07-29T08:53:44;5.03;;;4.53;;
12145;SDS011;6136;47.032;15.398;2022-07-29T08:56:14;4.43;;;4.03;;
12145;SDS011;6136;47.032;15.398;2022-07-29T08:58:45;4.57;;;4.18;;
12145;SDS011;6136;47.032;15.398;2022-07-29T09:01:17;4.65;;;4.18;;
12145;SDS011;6136;47.032;15.398;2022-07-29T09:04:03;5.00;;;4.35;;
12145;SDS011;6136;47.032;15.398;2022-07-29T09:06:36;5.22;;;4.53;;
12145;SDS011;6136;47.032;15.398;2022-07-29T09:09:07;5.90;;;4.72;;
12145;SDS011;6136;47.032;15.398;2022-07-29T09:11:35;4.75;;;3.97;;
12145;SDS011;6136;47.032;15.398;2022-07-29T09:14:04;4.32;;;3.92;;
12145;SDS011;6136;47.032;15.398;2022-07-29T09:16:48;6.88;;;4.00;;
12145;SDS011;6136;47.032;15.398;2022-07-29T09:19:20;4.50;;;4.03;;
12145;SDS011;6136;47.032;15.398;2022-07-29T09:21:51;4.57;;;3.85;;
12145;SDS011;6136;47.032;15.398;2022-07-29T09:27:19;4.65;;;4.25;;
12145;SDS011;6136;47.032;15.398;2022-07-29T09:29:56;4.50;;;4.10;;
12145;SDS011;6136;47.032;15.398;2022-07-29T09:32:25;4.85;;;4.40;;
12145;SDS011;6136;47.032;15.398;2022-07-29T09:37:43;5.68;;;4.50;;
12145;SDS011;6136;47.032;15.398;2022-07-29T09:40:12;6.20;;;4.40;;
12145;SDS011;6136;47.032;15.398;2022-07-29T09:42:42;5.43;;;4.03;;
12145;SDS011;6136;47.032;15.398;2022-07-29T09:45:11;4.97;;;4.55;;
12145;SDS011;6136;47.032;15.398;2022-07-29T09:47:40;6.85;;;4.57;;
12145;SDS011;6136;47.032;15.398;2022-07-29T09:50:11;4.80;;;4.40;;
12145;SDS011;6136;47.032;15.398;2022-07-29T09:52:47;4.85;;;4.38;;
12145;SDS011;6136;47.032;15.398;2022-07-29T09:55:17;4.40;;;4.00;;
12145;SDS011;6136;47.032;15.398;2022-07-29T09:57:46;4.80;;;4.40;;
12145;SDS011;6136;47.032;15.398;2022-07-29T10:00:17;4.70;;;4.30;;
12145;SDS011;6136;47.032;15.398;2022-07-29T10:02:46;4.68;;;4.25;;
12145;SDS011;6136;47.032;15.398;2022-07-29T10:05:19;4.68;;;4.28;;
12145;SDS011;6136;47.032;15.398;2022-07-29T10:07:50;5.10;;;4.10;;
12145;SDS011;6136;47.032;15.398;2022-07-29T10:10:21;4.55;;;4.22;;
12145;SDS011;6136;47.032;15.398;2022-07-29T10:12:52;5.07;;;4.57;;
12145;SDS011;6136;47.032;15.398;2022-07-29T10:15:22;4.55;;;4.15;;
12145;SDS011;6136;47.032;15.398;2022-07-29T10:17:52;4.75;;;4.28;;
12145;SDS011;6136;47.032;15.398;2022-07-29T10:20:22;4.70;;;4.30;;
12145;SDS011;6136;47.032;15.398;2022-07-29T10:22:52;5.03;;;4.10;;
12145;SDS011;6136;47.032;15.398;2022-07-29T10:25:22;4.45;;;4.05;;
12145;SDS011;6136;47.032;15.398;2022-07-29T10:27:51;5.05;;;4.50;;
12145;SDS011;6136;47.032;15.398;2022-07-29T10:30:21;6.10;;;4.25;;
12145;SDS011;6136;47.032;15.398;2022-07-29T10:32:56;4.72;;;4.32;;
12145;SDS011;6136;47.032;15.398;2022-07-29T10:35:43;6.05;;;3.88;;
12145;SDS011;6136;47.032;15.398;2022-07-29T10:38:40;4.65;;;4.25;;
12145;SDS011;6136;47.032;15.398;2022-07-29T10:41:20;5.10;;;4.60;;
12145;SDS011;6136;47.032;15.398;2022-07-29T10:44:22;4.50;;;4.10;;
12145;SDS011;6136;47.032;15.398;2022-07-29T10:46:52;5.07;;;4.57;;
12145;SDS011;6136;47.032;15.398;2022-07-29T10:49:21;4.80;;;4.28;;
12145;SDS011;6136;47.032;15.398;2022-07-29T10:52:00;4.38;;;3.90;;
12145;SDS011;6136;47.032;15.398;2022-07-29T10:54:51;4.90;;;4.45;;
12145;SDS011;6136;47.032;15.398;2022-07-29T10:57:24;4.57;;;4.10;;
12145;SDS011;6136;47.032;15.398;2022-07-29T11:00:28;5.28;;;4.45;;
12145;SDS011;6136;47.032;15.398;2022-07-29T11:02:59;5.88;;;4.53;;
12145;SDS011;6136;47.032;15.398;2022-07-29T11:05:30;5.55;;;5.05;;
12145;SDS011;6136;47.032;15.398;2022-07-29T11:08:22;8.07;;;5.10;;
12145;SDS011;6136;47.032;15.398;2022-07-29T11:14:05;4.63;;;4.22;;
12145;SDS011;6136;47.032;15.398;2022-07-29T11:19:32;4.82;;;4.32;;
12145;SDS011;6136;47.032;15.398;2022-07-29T11:22:01;6.97;;;4.60;;
12145;SDS011;6136;47.032;15.398;2022-07-29T11:25:03;4.85;;;4.18;;
12145;SDS011;6136;47.032;15.398;2022-07-29T11:27:41;6.50;;;4.13;;
12145;SDS011;6136;47.032;15.398;2022-07-29T11:30:11;4.57;;;4.15;;
12145;SDS011;6136;47.032;15.398;2022-07-29T11:32:40;4.25;;;3.83;;
12145;SDS011;6136;47.032;15.398;2022-07-29T11:35:15;4.47;;;4.07;;
12145;SDS011;6136;47.032;15.398;2022-07-29T11:41:21;3.83;;;3.53;;
12145;SDS011;6136;47.032;15.398;2022-07-29T11:43:52;4.25;;;3.85;;
12145;SDS011;6136;47.032;15.398;2022-07-29T11:49:13;3.88;;;3.58;;
12145;SDS011;6136;47.032;15.398;2022-07-29T11:51:50;4.30;;;3.90;;
12145;SDS011;6136;47.032;15.398;2022-07-29T11:54:21;3.85;;;3.55;;
12145;SDS011;6136;47.032;15.398;2022-07-29T11:56:53;4.40;;;3.65;;
12145;SDS011;6136;47.032;15.398;2022-07-29T11:59:22;5.40;;;4.18;;
12145;SDS011;6136;47.032;15.398;2022-07-29T12:01:59;3.97;;;3.67;;
12145;SDS011;6136;47.032;15.398;2022-07-29T12:04:48;3.88;;;3.53;;
12145;SDS011;6136;47.032;15.398;2022-07-29T12:07:17;4.10;;;3.67;;
12145;SDS011;6136;47.032;15.398;2022-07-29T12:09:49;4.20;;;3.80;;
12145;SDS011;6136;47.032;15.398;2022-07-29T12:12:18;4.95;;;4.10;;
12145;SDS011;6136;47.032;15.398;2022-07-29T12:14:48;4.85;;;4.20;;
12145;SDS011;6136;47.032;15.398;2022-07-29T12:17:25;4.18;;;3.78;;
12145;SDS011;6136;47.032;15.398;2022-07-29T12:19:56;4.25;;;3.85;;
12145;SDS011;6136;47.032;15.398;2022-07-29T12:22:25;4.65;;;4.25;;
12145;SDS011;6136;47.032;15.398;2022-07-29T12:24:54;4.65;;;4.22;;
12145;SDS011;6136;47.032;15.398;2022-07-29T12:27:27;4.38;;;4.00;;
12145;SDS011;6136;47.032;15.398;2022-07-29T12:29:59;4.78;;;4.38;;
12145;SDS011;6136;47.032;15.398;2022-07-29T12:32:32;6.43;;;4.35;;
12145;SDS011;6136;47.032;15.398;2022-07-29T12:35:02;3.90;;;3.60;;
12145;SDS011;6136;47.032;15.398;2022-07-29T12:37:32;5.55;;;3.72;;
12145;SDS011;6136;47.032;15.398;2022-07-29T12:40:07;5.70;;;4.03;;
12145;SDS011;6136;47.032;15.398;2022-07-29T12:42:36;4.35;;;3.95;;
12145;SDS011;6136;47.032;15.398;2022-07-29T12:45:06;4.82;;;4.15;;
12145;SDS011;6136;47.032;15.398;2022-07-29T12:50:18;4.40;;;4.00;;
12145;SDS011;6136;47.032;15.398;2022-07-29T12:52:51;4.60;;;4.07;;
12145;SDS011;6136;47.032;15.398;2022-07-29T12:58:06;4.72;;;4.32;;
12145;SDS011;6136;47.032;15.398;2022-07-29T13:00:36;4.93;;;4.53;;
12145;SDS011;6136;47.032;15.398;2022-07-29T13:03:04;4.50;;;4.07;;
12145;SDS011;6136;47.032;15.398;2022-07-29T13:05:40;4.25;;;3.95;;
12145;SDS011;6136;47.032;15.398;2022-07-29T13:08:14;5.07;;;4.68;;
12145;SDS011;6136;47.032;15.398;2022-07-29T13:10:47;4.72;;;4.32;;
12145;SDS011;6136;47.032;15.398;2022-07-29T13:13:15;5.40;;;4.90;;
12145;SDS011;6136;47.032;15.398;2022-07-29T13:15:45;5.30;;;4.80;;
12145;SDS011;6136;47.032;15.398;2022-07-29T13:18:27;4.68;;;4.18;;
12145;SDS011;6136;47.032;15.398;2022-07-29T13:20:56;4.40;;;4.00;;
12145;SDS011;6136;47.032;15.398;2022-07-29T13:23:24;5.85;;;4.10;;
12145;SDS011;6136;47.032;15.398;2022-07-29T13:25:52;4.38;;;3.97;;
12145;SDS011;6136;47.032;15.398;2022-07-29T13:28:20;5.00;;;4.47;;
12145;SDS011;6136;47.032;15.398;2022-07-29T13:30:50;4.55;;;4.15;;
12145;SDS011;6136;47.032;15.398;2022-07-29T13:33:18;5.95;;;4.47;;
12145;SDS011;6136;47.032;15.398;2022-07-29T13:35:46;4.03;;;3.72;;
12145;SDS011;6136;47.032;15.398;2022-07-29T13:38:15;4.85;;;4.45;;
12145;SDS011;6136;47.032;15.398;2022-07-29T13:40:43;4.60;;;4.20;;
12145;SDS011;6136;47.032;15.398;2022-07-29T13:43:11;4.72;;;4.32;;
12145;SDS011;6136;47.032;15.398;2022-07-29T13:45:40;6.07;;;4.88;;
12145;SDS011;6136;47.032;15.398;2022-07-29T13:48:09;4.43;;;4.03;;
12145;SDS011;6136;47.032;15.398;2022-07-29T13:50:37;4.95;;;4.50;;
12145;SDS011;6136;47.032;15.398;2022-07-29T13:53:06;4.78;;;4.38;;
12145;SDS011;6136;47.032;15.398;2022-07-29T13:55:34;4.68;;;4.28;;
12145;SDS011;6136;47.032;15.398;2022-07-29T13:58:02;5.80;;;4.45;;
12145;SDS011;6136;47.032;15.398;2022-07-29T14:00:31;5.28;;;4.78;;
12145;SDS011;6136;47.032;15.398;2022-07-29T14:02:59;4.63;;;4.22;;
12145;SDS011;6136;47.032;15.398;2022-07-29T14:05:29;4.40;;;4.00;;
12145;SDS011;6136;47.032;15.398;2022-07-29T14:07:57;4.70;;;4.30;;
12145;SDS011;6136;47.032;15.398;2022-07-29T14:10:25;4.57;;;4.18;;
12145;SDS011;6136;47.032;15.398;2022-07-29T14:12:54;4.75;;;4.35;;
12145;SDS011;6136;47.032;15.398;2022-07-29T14:15:23;5.20;;;4.70;;
12145;SDS011;6136;47.032;15.398;2022-07-29T14:17:51;4.80;;;4.30;;
12145;SDS011;6136;47.032;15.398;2022-07-29T14:20:19;3.90;;;3.60;;
12145;SDS011;6136;47.032;15.398;2022-07-29T14:22:49;4.65;;;4.20;;
12145;SDS011;6136;47.032;15.398;2022-07-29T14:25:17;4.43;;;4.07;;
12145;SDS011;6136;47.032;15.398;2022-07-29T14:27:46;4.25;;;3.85;;
12145;SDS011;6136;47.032;15.398;2022-07-29T14:30:14;4.60;;;4.20;;
12145;SDS011;6136;47.032;15.398;2022-07-29T14:32:42;4.68;;;4.28;;
12145;SDS011;6136;47.032;15.398;2022-07-29T14:35:11;4.13;;;3.72;;
12145;SDS011;6136;47.032;15.398;2022-07-29T14:37:39;4.35;;;3.90;;
12145;SDS011;6136;47.032;15.398;2022-07-29T14:40:09;4.88;;;4.38;;
12145;SDS011;6136;47.032;15.398;2022-07-29T14:42:38;4.57;;;4.18;;
12145;SDS011;6136;47.032;15.398;2022-07-29T14:45:07;5.00;;;3.70;;
12145;SDS011;6136;47.032;15.398;2022-07-29T14:47:37;4.40;;;4.03;;
12145;SDS011;6136;47.032;15.398;2022-07-29T14:50:06;4.28;;;3.90;;
12145;SDS011;6136;47.032;15.398;2022-07-29T14:52:35;3.92;;;3.63;;
12145;SDS011;6136;47.032;15.398;2022-07-29T14:55:04;4.28;;;3.97;;
12145;SDS011;6136;47.032;15.398;2022-07-29T14:57:46;4.30;;;3.90;;
12145;SDS011;6136;47.032;15.398;2022-07-29T15:00:15;4.40;;;4.00;;
12145;SDS011;6136;47.032;15.398;2022-07-29T15:02:43;4.47;;;4.07;;
12145;SDS011;6136;47.032;15.398;2022-07-29T15:05:27;4.05;;;3.75;;
12145;SDS011;6136;47.032;15.398;2022-07-29T15:07:55;4.38;;;3.97;;
12145;SDS011;6136;47.032;15.398;2022-07-29T15:10:23;4.30;;;3.90;;
12145;SDS011;6136;47.032;15.398;2022-07-29T15:12:53;4.13;;;3.83;;
12145;SDS011;6136;47.032;15.398;2022-07-29T15:15:22;4.45;;;4.13;;
12145;SDS011;6136;47.032;15.398;2022-07-29T15:17:50;3.88;;;3.58;;
12145;SDS011;6136;47.032;15.398;2022-07-29T15:20:18;4.32;;;3.92;;
12145;SDS011;6136;47.032;15.398;2022-07-29T15:22:47;4.30;;;3.72;;
12145;SDS011;6136;47.032;15.398;2022-07-29T15:25:15;5.03;;;3.92;;
12145;SDS011;6136;47.032;15.398;2022-07-29T15:27:44;3.80;;;3.50;;
12145;SDS011;6136;47.032;15.398;2022-07-29T15:30:15;8.57;;;3.80;;
12145;SDS011;6136;47.032;15.398;2022-07-29T15:32:57;4.18;;;3.72;;
12145;SDS011;6136;47.032;15.398;2022-07-29T15:35:26;5.13;;;4.03;;